Time;durP1;ratioP1;P1;durP2;ratioP2;P2;SDS_P1;SDS_P2;PMS_P1;PMS_P2;Temp;Humidity;BMP_temperature;BMP_pressure;BME280_temperature;BME280_humidity;BME280_pressure;Samples;Min_cycle;Max_cycle;Signal;HPM_P1;HPM_P2
2023/06/28 00:01:45;;;;;;;0.30;0.30;;;;;;;13.33;nan;100591.78;4948065;29;20618;-91
2023/06/28 00:04:10;;;;;;;2.07;0.63;;;;;;;13.44;nan;100594.94;4944005;28;20269;-90
2023/06/28 00:06:36;;;;;;;16.13;0.87;;;;;;;13.44;nan;100597.69;4942144;29;20194;-91
2023/06/28 00:09:01;;;;;;;0.40;0.40;;;;;;;13.38;nan;100590.78;4954405;28;20657;-91
2023/06/28 00:11:27;;;;;;;0.23;0.23;;;;;;;13.40;nan;100592.06;4940899;29;20214;-91
2023/06/28 00:13:53;;;;;;;2.60;1.40;;;;;;;13.44;nan;100605.94;4955476;28;20225;-91
2023/06/28 00:16:19;;;;;;;0.43;0.43;;;;;;;13.42;nan;100601.91;4947587;29;20277;-91
2023/06/28 00:18:45;;;;;;;0.23;0.23;;;;;;;13.38;nan;100601.75;4955163;28;20221;-91
2023/06/28 00:21:14;;;;;;;2.90;0.23;;;;;;;13.39;nan;100608.84;4938413;28;20227;-91
2023/06/28 00:23:40;;;;;;;0.10;0.10;;;;;;;13.39;nan;100604.19;4947385;28;20250;-91
2023/06/28 00:26:06;;;;;;;3.03;0.43;;;;;;;13.30;nan;100608.88;4946000;28;20664;-91
2023/06/28 00:28:31;;;;;;;0.93;0.93;;;;;;;13.22;nan;100620.69;4964697;28;20186;-91
2023/06/28 00:30:57;;;;;;;0.30;0.30;;;;;;;13.23;nan;100614.06;4946964;29;20191;-91
2023/06/28 00:33:22;;;;;;;0.20;0.20;;;;;;;13.17;nan;100617.28;4935897;29;20595;-91
2023/06/28 00:35:48;;;;;;;0.50;0.50;;;;;;;13.10;nan;100623.22;4950874;29;20265;-91
2023/06/28 00:38:14;;;;;;;0.50;0.17;;;;;;;13.14;nan;100621.44;4955077;28;20616;-91
2023/06/28 00:40:39;;;;;;;0.53;0.53;;;;;;;13.08;nan;100626.31;4941134;29;20243;-91
2023/06/28 00:43:04;;;;;;;0.07;0.07;;;;;;;12.91;nan;100618.09;4952843;29;20214;-91
2023/06/28 00:45:30;;;;;;;1.30;1.30;;;;;;;12.88;nan;100626.16;4943689;28;20211;-91
2023/06/28 00:47:56;;;;;;;0.30;0.30;;;;;;;12.97;nan;100629.69;4951822;29;20206;-91
2023/06/28 00:50:21;;;;;;;0.67;0.43;;;;;;;13.02;nan;100616.63;4951274;28;20187;-91
2023/06/28 00:52:46;;;;;;;0.40;0.40;;;;;;;12.90;nan;100624.69;4935378;29;20614;-90
2023/06/28 00:55:12;;;;;;;38.73;1.70;;;;;;;12.93;nan;100624.06;4935374;29;20212;-91
2023/06/28 00:57:38;;;;;;;0.03;0.03;;;;;;;12.87;nan;100628.06;4941263;29;20189;-91
2023/06/28 01:00:08;;;;;;;0.20;0.20;;;;;;;13.01;nan;100625.16;4951030;28;20269;-91
2023/06/28 01:02:33;;;;;;;0.60;0.37;;;;;;;13.04;nan;100628.09;4940623;29;20553;-90
2023/06/28 01:04:58;;;;;;;0.67;0.47;;;;;;;13.07;nan;100626.63;4954414;28;20214;-90
2023/06/28 01:07:28;;;;;;;0.40;0.40;;;;;;;13.07;nan;100635.66;4950519;29;20197;-90
2023/06/28 01:09:56;;;;;;;0.40;0.40;;;;;;;13.04;nan;100628.09;4951449;29;20227;-90
2023/06/28 01:12:24;;;;;;;1.00;0.60;;;;;;;13.05;nan;100634.38;4951229;29;20191;-90
2023/06/28 01:14:49;;;;;;;0.60;0.60;;;;;;;13.09;nan;100627.09;4951026;28;20302;-91
2023/06/28 01:17:14;;;;;;;2.63;0.73;;;;;;;13.20;nan;100630.38;4942949;29;20331;-90
2023/06/28 01:19:40;;;;;;;0.90;0.90;;;;;;;13.12;nan;100629.19;4935893;29;20567;-91
2023/06/28 01:22:09;;;;;;;0.93;0.90;;;;;;;13.14;nan;100621.44;4958707;28;20187;-90
2023/06/28 01:24:36;;;;;;;0.83;0.70;;;;;;;13.06;nan;100619.53;4948152;28;20268;-90
2023/06/28 01:27:02;;;;;;;3.63;0.67;;;;;;;13.07;nan;100623.88;4938117;29;20190;-91
2023/06/28 01:29:28;;;;;;;1.00;1.00;;;;;;;13.03;nan;100617.44;4950390;28;20198;-91
2023/06/28 01:31:55;;;;;;;0.73;0.37;;;;;;;13.13;nan;100628.06;4934679;29;20560;-90
2023/06/28 01:34:22;;;;;;;7.83;1.07;;;;;;;13.08;nan;100623.56;4958506;28;20210;-90
2023/06/28 01:36:50;;;;;;;0.50;0.50;;;;;;;13.18;nan;100621.63;4965641;28;20563;-90
2023/06/28 01:39:19;;;;;;;0.17;0.17;;;;;;;13.09;nan;100621.63;4953179;28;20681;-90
2023/06/28 01:41:46;;;;;;;1.93;0.80;;;;;;;13.07;nan;100624.69;4938669;29;20258;-90
2023/06/28 01:44:12;;;;;;;0.63;0.53;;;;;;;13.25;nan;100638.41;4934300;29;20233;-91
2023/06/28 01:46:38;;;;;;;0.37;0.37;;;;;;;13.20;nan;100635.84;4950506;28;20278;-90
2023/06/28 01:49:04;;;;;;;4.13;1.13;;;;;;;13.25;nan;100635.69;4951418;29;20634;-90
2023/06/28 01:51:30;;;;;;;4.27;1.80;;;;;;;13.17;nan;100633.72;4940915;29;20187;-90
2023/06/28 01:53:55;;;;;;;5.80;1.27;;;;;;;13.15;nan;100625.00;4935376;29;20231;-90
2023/06/28 01:56:20;;;;;;;5.97;1.87;;;;;;;13.22;nan;100636.34;4945799;29;20186;-90
2023/06/28 01:58:46;;;;;;;15.67;1.93;;;;;;;13.25;nan;100633.75;4942149;28;20561;-90
2023/06/28 02:01:12;;;;;;;0.40;0.40;;;;;;;13.32;nan;100639.56;4936446;29;20257;-89
2023/06/28 02:03:38;;;;;;;2.93;1.23;;;;;;;13.25;nan;100630.19;4950207;28;20219;-90
2023/06/28 02:06:03;;;;;;;6.93;0.80;;;;;;;13.27;nan;100631.47;4941828;29;20278;-90
2023/06/28 02:08:28;;;;;;;1.27;1.27;;;;;;;13.29;nan;100626.47;4954610;28;20198;-90
2023/06/28 02:10:54;;;;;;;0.77;0.50;;;;;;;13.21;nan;100634.72;4952961;29;20226;-91
2023/06/28 02:13:19;;;;;;;0.67;0.67;;;;;;;13.16;nan;100632.09;4949898;28;20187;-90
2023/06/28 02:15:44;;;;;;;0.80;0.80;;;;;;;13.18;nan;100629.84;4964597;28;20696;-90
2023/06/28 02:18:10;;;;;;;7.30;0.83;;;;;;;13.12;nan;100637.44;4951012;28;20187;-90
2023/06/28 02:20:35;;;;;;;8.23;1.43;;;;;;;13.16;nan;100626.59;4933690;29;20728;-90
2023/06/28 02:23:00;;;;;;;0.60;0.60;;;;;;;13.18;nan;100636.19;4949774;29;20213;-91
2023/06/28 02:25:26;;;;;;;0.83;0.47;;;;;;;13.20;nan;100631.16;4938012;29;20217;-90
2023/06/28 02:27:51;;;;;;;2.67;1.47;;;;;;;13.18;nan;100633.44;4953101;28;20190;-90
2023/06/28 02:30:18;;;;;;;4.00;1.53;;;;;;;13.10;nan;100632.25;4936970;29;20183;-90
2023/06/28 02:32:43;;;;;;;1.00;0.60;;;;;;;13.18;nan;100635.34;4938478;29;20182;-90
2023/06/28 02:35:09;;;;;;;0.37;0.37;;;;;;;13.15;nan;100639.50;4933502;29;20199;-90
2023/06/28 02:37:34;;;;;;;1.20;0.70;;;;;;;13.11;nan;100631.13;4944000;29;20289;-90
2023/06/28 02:39:59;;;;;;;1.30;1.20;;;;;;;13.08;nan;100634.53;4949550;29;20182;-90
2023/06/28 02:42:24;;;;;;;0.33;0.33;;;;;;;13.19;nan;100639.72;4950130;29;20616;-90
2023/06/28 02:44:50;;;;;;;5.30;1.73;;;;;;;13.00;nan;100629.84;4938677;28;20279;-90
2023/06/28 02:47:15;;;;;;;1.87;1.60;;;;;;;13.10;nan;100637.75;4936318;29;20193;-91
2023/06/28 02:49:40;;;;;;;1.13;1.03;;;;;;;13.14;nan;100626.13;4969236;28;20193;-91
2023/06/28 02:52:06;;;;;;;2.00;0.83;;;;;;;13.15;nan;100627.75;4953031;28;20317;-90
2023/06/28 02:54:31;;;;;;;3.03;0.90;;;;;;;13.14;nan;100631.63;4940109;28;20231;-90
2023/06/28 02:56:57;;;;;;;0.93;0.93;;;;;;;13.17;nan;100636.47;4934240;29;20282;-91
2023/06/28 02:59:22;;;;;;;0.70;0.60;;;;;;;13.20;nan;100638.59;4940878;29;20733;-91
2023/06/28 03:01:47;;;;;;;2.17;0.67;;;;;;;13.04;nan;100646.47;4948639;29;20182;-91
2023/06/28 03:04:12;;;;;;;2.10;1.07;;;;;;;13.09;nan;100644.38;4950149;28;20210;-91
2023/06/28 03:06:38;;;;;;;0.50;0.50;;;;;;;13.08;nan;100645.50;4949380;29;20183;-90
2023/06/28 03:09:04;;;;;;;7.23;1.30;;;;;;;13.08;nan;100640.03;4940452;29;20202;-91
2023/06/28 03:11:29;;;;;;;8.43;0.97;;;;;;;13.08;nan;100640.03;4952561;29;20213;-90
2023/06/28 03:13:54;;;;;;;0.43;0.43;;;;;;;13.10;nan;100651.47;4952173;28;20210;-91
2023/06/28 03:16:22;;;;;;;1.10;0.73;;;;;;;13.10;nan;100643.25;4938121;29;20191;-91
2023/06/28 03:18:47;;;;;;;0.40;0.40;;;;;;;12.99;nan;100639.19;4960130;28;20189;-90
2023/06/28 03:21:12;;;;;;;1.93;1.40;;;;;;;13.14;nan;100657.09;4942143;28;20180;-91
2023/06/28 03:23:38;;;;;;;3.77;1.13;;;;;;;13.11;nan;100646.78;4933237;29;20207;-91
2023/06/28 03:26:04;;;;;;;1.03;0.77;;;;;;;13.08;nan;100650.19;4941167;29;20557;-91
2023/06/28 03:28:29;;;;;;;29.37;2.43;;;;;;;13.10;nan;100648.72;4957071;28;20212;-90
2023/06/28 03:30:54;;;;;;;8.20;0.57;;;;;;;13.18;nan;100654.53;4940822;29;20190;-91
2023/06/28 03:33:20;;;;;;;1.27;1.13;;;;;;;13.06;nan;100650.50;4933353;29;20244;-91
2023/06/28 03:35:45;;;;;;;1.40;1.30;;;;;;;13.13;nan;100647.28;4940330;29;20186;-90
2023/06/28 03:38:11;;;;;;;0.83;0.83;;;;;;;13.06;nan;100650.50;4952102;29;20654;-90
2023/06/28 03:40:36;;;;;;;0.77;0.63;;;;;;;13.09;nan;100649.84;4946415;29;20185;-91
2023/06/28 03:43:02;;;;;;;1.13;1.03;;;;;;;13.19;nan;100643.28;4932980;29;20213;-90
2023/06/28 03:45:28;;;;;;;0.70;0.70;;;;;;;13.09;nan;100651.78;4940877;29;20217;-90
2023/06/28 03:47:54;;;;;;;0.67;0.67;;;;;;;13.19;nan;100648.75;4940741;29;20566;-91
2023/06/28 03:50:19;;;;;;;0.63;0.63;;;;;;;13.27;nan;100649.88;4948799;29;20188;-91
2023/06/28 03:52:45;;;;;;;0.30;0.30;;;;;;;13.31;nan;100645.38;4940925;29;20187;-91
2023/06/28 03:55:10;;;;;;;0.47;0.47;;;;;;;13.23;nan;100635.19;4943043;29;20202;-90
2023/06/28 03:57:35;;;;;;;1.13;1.03;;;;;;;13.33;nan;100640.38;4952427;29;20194;-90
2023/06/28 04:00:04;;;;;;;1.13;1.10;;;;;;;13.30;nan;100638.25;4950901;29;20192;-91
2023/06/28 04:02:29;;;;;;;3.57;1.70;;;;;;;13.25;nan;100636.47;4937405;28;20238;-91
2023/06/28 04:04:54;;;;;;;0.70;0.70;;;;;;;13.31;nan;100634.41;4947173;28;20202;-91
2023/06/28 04:07:24;;;;;;;0.53;0.53;;;;;;;13.43;nan;100637.25;4955482;29;20657;-92
2023/06/28 04:09:50;;;;;;;1.07;0.97;;;;;;;13.36;nan;100640.50;4955180;29;20202;-91
2023/06/28 04:12:15;;;;;;;4.40;0.97;;;;;;;13.44;nan;100644.34;4955404;29;20178;-90
2023/06/28 04:14:40;;;;;;;4.57;1.50;;;;;;;13.35;nan;100635.34;4975189;23;20716;-87
2023/06/28 04:17:06;;;;;;;0.77;0.77;;;;;;;13.35;nan;100638.91;4955170;29;20210;-87
2023/06/28 04:19:31;;;;;;;0.60;0.60;;;;;;;13.55;nan;100645.63;4955091;29;20187;-88
2023/06/28 04:21:57;;;;;;;5.70;0.63;;;;;;;13.44;nan;100644.34;4956444;28;20182;-88
2023/06/28 04:24:22;;;;;;;1.07;1.00;;;;;;;13.52;nan;100654.53;4961881;28;20220;-88
2023/06/28 04:26:47;;;;;;;0.63;0.63;;;;;;;13.57;nan;100642.56;4975791;28;20178;-87
2023/06/28 04:29:13;;;;;;;0.17;0.17;;;;;;;13.55;nan;100645.63;4974223;28;20212;-88
2023/06/28 04:31:38;;;;;;;0.40;0.40;;;;;;;13.65;nan;100650.78;4990846;28;20182;-88
2023/06/28 04:34:05;;;;;;;8.60;0.87;;;;;;;13.65;nan;100648.03;4974389;28;20292;-87
2023/06/28 04:36:30;;;;;;;1.17;1.00;;;;;;;13.70;nan;100652.53;4975864;28;20224;-87
2023/06/28 04:38:56;;;;;;;6.60;1.67;;;;;;;13.76;nan;100643.00;4982077;28;20555;-88
2023/06/28 04:41:22;;;;;;;0.23;0.23;;;;;;;13.73;nan;100654.63;4974529;28;20681;-88
2023/06/28 04:43:48;;;;;;;5.30;1.60;;;;;;;13.76;nan;100654.00;4974647;28;20228;-87
2023/06/28 04:46:13;;;;;;;1.70;1.27;;;;;;;13.65;nan;100648.03;4990456;28;20185;-88
2023/06/28 04:48:42;;;;;;;0.50;0.47;;;;;;;13.82;nan;100649.13;4975337;28;20216;-88
2023/06/28 04:51:08;;;;;;;1.63;1.27;;;;;;;13.72;nan;100643.97;4972857;28;20182;-88
2023/06/28 04:53:33;;;;;;;0.27;0.27;;;;;;;13.92;nan;100646.84;4990351;28;20548;-87
2023/06/28 04:56:00;;;;;;;0.67;0.17;;;;;;;13.93;nan;100640.19;4974075;28;20269;-87
2023/06/28 04:58:25;;;;;;;1.00;1.00;;;;;;;13.81;nan;100648.31;4973901;28;20197;-88
2023/06/28 05:00:51;;;;;;;1.90;1.20;;;;;;;13.84;nan;100653.16;4990161;28;20194;-88
2023/06/28 05:03:16;;;;;;;2.20;1.30;;;;;;;13.86;nan;100650.88;4976197;28;20309;-88
2023/06/28 05:05:42;;;;;;;0.60;0.60;;;;;;;13.93;nan;100653.94;4990161;28;20206;-88
2023/06/28 05:08:07;;;;;;;0.87;0.87;;;;;;;13.86;nan;100652.81;4973715;28;20217;-89
2023/06/28 05:10:33;;;;;;;0.77;0.40;;;;;;;13.99;nan;100660.03;4989738;28;20221;-89
2023/06/28 05:12:58;;;;;;;5.73;2.10;;;;;;;13.95;nan;100653.59;4975367;28;20268;-88
2023/06/28 05:15:24;;;;;;;0.43;0.43;;;;;;;14.02;nan;100659.38;4972504;28;20235;-88
2023/06/28 05:17:49;;;;;;;3.23;1.17;;;;;;;14.13;nan;100654.34;4974975;28;20190;-88
2023/06/28 05:20:15;;;;;;;1.00;0.67;;;;;;;14.14;nan;100647.69;4989821;28;20194;-88
2023/06/28 05:22:46;;;;;;;2.60;0.80;;;;;;;14.28;nan;100651.84;4989631;28;20188;-87
2023/06/28 05:25:11;;;;;;;0.73;0.73;;;;;;;14.32;nan;100648.41;4974791;28;20649;-90
2023/06/28 05:27:36;;;;;;;1.80;0.53;;;;;;;14.40;nan;100650.31;4973623;28;20185;-88
2023/06/28 05:30:02;;;;;;;1.10;0.73;;;;;;;14.52;nan;100644.97;4973187;28;20189;-88
2023/06/28 05:32:27;;;;;;;4.73;1.00;;;;;;;14.56;nan;100646.69;4974509;28;20261;-88
2023/06/28 05:34:53;;;;;;;0.23;0.23;;;;;;;14.61;nan;100653.13;4973396;28;20217;-87
2023/06/28 05:37:18;;;;;;;1.50;0.93;;;;;;;14.48;nan;100649.53;4974251;28;20190;-87
2023/06/28 05:39:43;;;;;;;0.60;0.53;;;;;;;14.59;nan;100650.72;4973123;28;20189;-87
2023/06/28 05:42:08;;;;;;;2.67;1.30;;;;;;;14.67;nan;100649.06;4974772;28;20653;-88
2023/06/28 05:44:34;;;;;;;0.30;0.30;;;;;;;14.57;nan;100650.25;4973144;28;20252;-88
2023/06/28 05:46:59;;;;;;;8.53;1.27;;;;;;;14.61;nan;100655.88;4974579;28;20661;-87
2023/06/28 05:49:24;;;;;;;0.33;0.33;;;;;;;14.70;nan;100660.19;4974295;28;20671;-89
2023/06/28 05:51:50;;;;;;;5.87;1.80;;;;;;;14.75;nan;100660.00;4973085;28;20247;-88
2023/06/28 05:54:15;;;;;;;2.33;1.60;;;;;;;14.72;nan;100660.66;4988877;28;20217;-88
2023/06/28 05:56:40;;;;;;;1.93;1.33;;;;;;;14.76;nan;100650.63;4973001;28;20668;-88
2023/06/28 05:59:06;;;;;;;0.97;0.97;;;;;;;14.87;nan;100657.31;4988691;28;20204;-86
2023/06/28 06:01:31;;;;;;;0.13;0.13;;;;;;;14.93;nan;100655.19;4988827;28;20188;-87
2023/06/28 06:03:56;;;;;;;0.57;0.57;;;;;;;14.93;nan;100648.88;4972613;28;20298;-87
2023/06/28 06:06:22;;;;;;;1.30;0.83;;;;;;;15.06;nan;100650.56;4973928;28;20209;-87
2023/06/28 06:08:47;;;;;;;0.37;0.37;;;;;;;15.03;nan;100640.22;4969311;28;20186;-88
2023/06/28 06:11:12;;;;;;;0.10;0.10;;;;;;;15.11;nan;100650.34;4987743;28;20284;-87
2023/06/28 06:13:37;;;;;;;0.10;0.10;;;;;;;15.28;nan;100646.63;4988867;28;20252;-88
2023/06/28 06:16:03;;;;;;;0.77;0.77;;;;;;;15.31;nan;100646.75;4988691;28;20248;-88
2023/06/28 06:18:28;;;;;;;2.73;0.53;;;;;;;15.26;nan;100644.22;4972370;28;20182;-88
2023/06/28 06:20:53;;;;;;;7.07;0.93;;;;;;;15.31;nan;100645.97;4988429;28;20244;-88
2023/06/28 06:23:19;;;;;;;5.87;0.73;;;;;;;15.40;nan;100647.50;4972268;28;20255;-87
2023/06/28 06:25:44;;;;;;;0.00;0.00;;;;;;;15.53;nan;100648.34;4972156;28;20201;-88
2023/06/28 06:28:12;;;;;;;0.63;0.63;;;;;;;15.59;nan;100643.41;4973654;28;20204;-87
2023/06/28 06:30:37;;;;;;;3.30;0.67;;;;;;;15.71;nan;100640.72;4973424;28;20543;-87
2023/06/28 06:33:02;;;;;;;1.33;0.83;;;;;;;15.57;nan;100640.19;4988658;28;20329;-87
2023/06/28 06:35:28;;;;;;;0.30;0.30;;;;;;;15.62;nan;100640.00;4988554;28;20284;-87
2023/06/28 06:37:53;;;;;;;0.53;0.53;;;;;;;15.75;nan;100642.44;4988430;28;20182;-87
2023/06/28 06:40:19;;;;;;;3.27;0.83;;;;;;;15.73;nan;100641.19;4988131;28;20272;-87
2023/06/28 06:42:45;;;;;;;0.03;0.03;;;;;;;15.84;nan;100644.31;4975608;28;20189;-88
2023/06/28 06:45:16;;;;;;;2.10;1.10;;;;;;;15.93;nan;100650.53;4973351;28;20229;-87
2023/06/28 06:47:43;;;;;;;0.60;0.60;;;;;;;15.95;nan;100653.75;4988233;28;20184;-87
2023/06/28 06:50:09;;;;;;;3.10;1.30;;;;;;;16.00;nan;100657.09;4972996;28;20200;-87
2023/06/28 06:52:34;;;;;;;0.30;0.30;;;;;;;16.04;nan;100655.25;4971957;28;20186;-87
2023/06/28 06:55:00;;;;;;;1.20;1.10;;;;;;;16.24;nan;100663.78;4973514;28;20212;-88
2023/06/28 06:57:25;;;;;;;0.53;0.53;;;;;;;16.23;nan;100662.16;4988120;28;20177;-88
2023/06/28 06:59:50;;;;;;;0.57;0.57;;;;;;;16.39;nan;100667.78;4976106;28;20711;-87
2023/06/28 07:02:16;;;;;;;0.30;0.30;;;;;;;16.43;nan;100654.91;4971934;28;20188;-88
2023/06/28 07:04:41;;;;;;;1.63;0.93;;;;;;;16.40;nan;100664.69;4971795;28;20751;-87
2023/06/28 07:07:06;;;;;;;0.10;0.10;;;;;;;16.47;nan;100655.81;4987943;28;20577;-88
2023/06/28 07:09:32;;;;;;;2.13;0.83;;;;;;;16.47;nan;100653.06;4971521;28;20213;-88
2023/06/28 07:11:57;;;;;;;0.67;0.67;;;;;;;16.57;nan;100655.38;4973006;28;20562;-87
2023/06/28 07:14:22;;;;;;;1.50;0.97;;;;;;;16.53;nan;100655.25;4988525;28;20217;-87
2023/06/28 07:16:47;;;;;;;0.37;0.03;;;;;;;16.50;nan;100653.19;4973625;28;20188;-87
2023/06/28 07:19:13;;;;;;;0.10;0.10;;;;;;;16.71;nan;100668.84;4971454;28;20611;-88
2023/06/28 07:21:38;;;;;;;0.10;0.10;;;;;;;16.75;nan;100664.22;4968469;28;20186;-88
2023/06/28 07:24:04;;;;;;;0.10;0.10;;;;;;;16.78;nan;100655.25;4970813;28;20702;-87
2023/06/28 07:26:29;;;;;;;0.00;0.00;;;;;;;16.91;nan;100659.59;4988105;28;20192;-88
2023/06/28 07:28:55;;;;;;;1.00;1.00;;;;;;;17.01;nan;100653.59;4987546;28;20561;-88
2023/06/28 07:31:20;;;;;;;0.50;0.50;;;;;;;17.08;nan;100658.53;4971626;28;20178;-88
2023/06/28 07:33:45;;;;;;;0.20;0.20;;;;;;;17.11;nan;100660.59;4973047;28;20457;-88
2023/06/28 07:36:12;;;;;;;0.50;0.20;;;;;;;17.33;nan;100659.22;4987731;28;20239;-88
2023/06/28 07:38:38;;;;;;;0.00;0.00;;;;;;;17.29;nan;100647.28;4973141;28;20537;-88
2023/06/28 07:41:03;;;;;;;0.10;0.10;;;;;;;17.39;nan;100655.06;4975114;28;20190;-88
2023/06/28 07:43:28;;;;;;;1.33;0.90;;;;;;;17.49;nan;100662.81;4991240;28;20220;-88
2023/06/28 07:45:58;;;;;;;11.90;1.47;;;;;;;17.53;nan;100659.03;4976581;28;20268;-87
2023/06/28 07:48:24;;;;;;;0.13;0.10;;;;;;;17.68;nan;100654.72;4984062;28;20280;-88
2023/06/28 07:50:49;;;;;;;0.20;0.20;;;;;;;17.74;nan;100649.72;4976035;28;20225;-87
2023/06/28 07:53:15;;;;;;;0.00;0.00;;;;;;;17.78;nan;100643.13;4975061;28;20281;-88
2023/06/28 07:55:40;;;;;;;0.30;0.30;;;;;;;17.76;nan;100647.41;4991309;28;20244;-89
2023/06/28 07:58:05;;;;;;;1.63;0.83;;;;;;;17.78;nan;100645.88;4974909;28;20674;-88
2023/06/28 08:00:31;;;;;;;0.00;0.00;;;;;;;17.87;nan;100651.25;4991068;28;20182;-87
2023/06/28 08:02:57;;;;;;;3.17;0.90;;;;;;;17.95;nan;100655.81;4991092;28;20605;-88
2023/06/28 08:05:22;;;;;;;4.43;0.57;;;;;;;17.87;nan;100640.19;4975998;28;20236;-88
2023/06/28 08:07:48;;;;;;;5.97;1.77;;;;;;;18.00;nan;100643.69;4974863;28;20599;-88
2023/06/28 08:10:13;;;;;;;0.00;0.00;;;;;;;17.99;nan;100628.25;4974534;28;20244;-88
2023/06/28 08:12:38;;;;;;;0.00;0.00;;;;;;;18.27;nan;100642.78;4990965;28;20189;-88
2023/06/28 08:15:04;;;;;;;0.33;0.33;;;;;;;18.31;nan;100635.38;4990905;28;20225;-88
2023/06/28 08:17:30;;;;;;;2.33;0.20;;;;;;;18.43;nan;100632.50;4975914;28;20677;-88
2023/06/28 08:19:55;;;;;;;0.53;0.53;;;;;;;18.52;nan;100631.50;4990622;28;20272;-88
2023/06/28 08:22:20;;;;;;;0.00;0.00;;;;;;;18.45;nan;100612.78;4990792;28;20189;-88
2023/06/28 08:24:46;;;;;;;0.47;0.40;;;;;;;18.51;nan;100621.59;4990631;28;20371;-88
2023/06/28 08:27:11;;;;;;;0.00;0.00;;;;;;;18.59;nan;100618.63;4974441;28;20185;-88
2023/06/28 08:29:36;;;;;;;0.73;0.73;;;;;;;18.66;nan;100629.06;4974182;28;20193;-88
2023/06/28 08:32:02;;;;;;;0.00;0.00;;;;;;;18.58;nan;100628.09;4974406;28;20222;-87
2023/06/28 08:34:27;;;;;;;0.50;0.50;;;;;;;18.76;nan;100627.72;4975509;28;20205;-88
2023/06/28 08:36:53;;;;;;;0.47;0.43;;;;;;;18.79;nan;100625.03;4971367;28;20200;-87
2023/06/28 08:39:18;;;;;;;0.33;0.33;;;;;;;18.89;nan;100627.22;4990122;28;20655;-88
2023/06/28 08:41:44;;;;;;;0.00;0.00;;;;;;;18.94;nan;100621.38;4990570;28;20193;-88
2023/06/28 08:44:12;;;;;;;0.10;0.00;;;;;;;18.99;nan;100607.28;4975235;28;20256;-88
2023/06/28 08:46:39;;;;;;;1.13;0.73;;;;;;;19.02;nan;100614.84;4990509;28;20292;-88
2023/06/28 08:49:06;;;;;;;0.00;0.00;;;;;;;19.16;nan;100619.88;4975247;28;20190;-88
2023/06/28 08:51:32;;;;;;;1.30;0.23;;;;;;;19.14;nan;100624.97;4990507;28;20265;-88
2023/06/28 08:53:58;;;;;;;0.83;0.83;;;;;;;19.23;nan;100621.97;4975346;28;20186;-88
2023/06/28 08:56:25;;;;;;;0.93;0.93;;;;;;;19.36;nan;100617.88;4974140;28;20796;-88
2023/06/28 08:58:52;;;;;;;0.30;0.30;;;;;;;19.63;nan;100615.25;4975040;28;20178;-88
2023/06/28 09:01:24;;;;;;;4.07;1.27;;;;;;;19.54;nan;100607.16;4990075;28;20182;-88
2023/06/28 09:03:49;;;;;;;0.00;0.00;;;;;;;19.52;nan;100612.22;4973784;28;20248;-88
2023/06/28 09:06:15;;;;;;;0.00;0.00;;;;;;;19.82;nan;100609.66;4973698;28;20217;-88
2023/06/28 09:08:42;;;;;;;0.53;0.53;;;;;;;20.01;nan;100612.34;4989919;28;20186;-88
2023/06/28 09:11:08;;;;;;;12.30;0.87;;;;;;;20.00;nan;100599.66;4974834;28;20178;-89
2023/06/28 09:13:34;;;;;;;0.03;0.03;;;;;;;19.61;nan;100585.91;4989843;28;20185;-88
2023/06/28 09:16:00;;;;;;;0.00;0.00;;;;;;;19.76;nan;100588.94;4974767;28;20704;-88
2023/06/28 09:18:25;;;;;;;0.00;0.00;;;;;;;19.76;nan;100600.03;4973687;28;20192;-88
2023/06/28 09:20:52;;;;;;;0.13;0.10;;;;;;;19.96;nan;100609.06;4981569;28;20177;-88
2023/06/28 09:23:27;;;;;;;0.73;0.50;;;;;;;19.86;nan;100594.69;4989520;28;20202;-88
2023/06/28 09:25:53;;;;;;;8.23;0.80;;;;;;;19.85;nan;100597.81;4989380;28;20205;-87
2023/06/28 09:28:19;;;;;;;0.50;0.50;;;;;;;19.90;nan;100594.72;4989593;28;20186;-88
2023/06/28 09:30:54;;;;;;;0.10;0.10;;;;;;;20.03;nan;100593.38;4981206;28;20678;-88
2023/06/28 09:33:21;;;;;;;0.03;0.03;;;;;;;19.81;nan;100570.00;4973371;28;20177;-88
2023/06/28 09:35:46;;;;;;;2.00;0.80;;;;;;;19.75;nan;100587.34;4989323;28;20210;-88
2023/06/28 09:38:12;;;;;;;0.40;0.30;;;;;;;20.04;nan;100578.31;4989443;28;20181;-88
2023/06/28 09:40:37;;;;;;;0.00;0.00;;;;;;;19.96;nan;100586.88;4972921;28;20211;-88
2023/06/28 09:43:03;;;;;;;0.80;0.40;;;;;;;19.88;nan;100583.22;4974109;28;20202;-89
2023/06/28 09:45:37;;;;;;;1.60;1.03;;;;;;;19.87;nan;100576.88;4989012;28;20297;-88
2023/06/28 09:48:04;;;;;;;3.70;0.53;;;;;;;19.95;nan;100585.28;4973165;28;20196;-88
2023/06/28 09:50:42;;;;;;;2.40;1.50;;;;;;;19.90;nan;100586.41;4988867;28;20185;-88
2023/06/28 09:53:09;;;;;;;3.27;0.40;;;;;;;20.04;nan;100575.53;4972931;28;20277;-88
2023/06/28 09:55:37;;;;;;;0.30;0.20;;;;;;;20.05;nan;100562.47;4989120;28;20205;-89
2023/06/28 09:58:04;;;;;;;0.00;0.00;;;;;;;20.42;nan;100573.78;4988918;28;20185;-88
2023/06/28 10:00:31;;;;;;;1.63;0.63;;;;;;;20.46;nan;100569.88;4972195;28;20182;-89
2023/06/28 10:02:58;;;;;;;1.40;0.83;;;;;;;20.70;nan;100587.25;4972593;28;20273;-88
2023/06/28 10:05:25;;;;;;;0.00;0.00;;;;;;;20.71;nan;100574.97;4972724;28;20238;-88
2023/06/28 10:07:51;;;;;;;0.10;0.10;;;;;;;20.41;nan;100563.81;4972594;28;20190;-88
2023/06/28 10:10:18;;;;;;;0.10;0.10;;;;;;;20.57;nan;100563.66;4972553;28;20213;-88
2023/06/28 10:12:44;;;;;;;0.10;0.10;;;;;;;20.62;nan;100569.69;4988691;28;20293;-89
2023/06/28 10:15:15;;;;;;;0.03;0.03;;;;;;;20.84;nan;100578.31;4972935;28;20214;-89
2023/06/28 10:17:41;;;;;;;1.13;0.43;;;;;;;21.10;nan;100579.00;4973636;28;20191;-88
2023/06/28 10:20:07;;;;;;;0.37;0.37;;;;;;;21.31;nan;100594.38;4972056;28;20190;-87
2023/06/28 10:22:33;;;;;;;0.60;0.10;;;;;;;21.47;nan;100572.69;4988479;28;20187;-87
2023/06/28 10:25:00;;;;;;;0.87;0.30;;;;;;;21.37;nan;100560.28;4988173;28;20297;-87
2023/06/28 10:27:26;;;;;;;0.10;0.10;;;;;;;21.52;nan;100568.75;4972356;28;20529;-88
2023/06/28 10:29:54;;;;;;;5.63;0.67;;;;;;;21.58;nan;100575.59;4988145;28;20239;-90
2023/06/28 10:32:19;;;;;;;0.00;0.00;;;;;;;21.33;nan;100559.44;4972221;28;20194;-88
2023/06/28 10:34:47;;;;;;;0.40;0.40;;;;;;;21.55;nan;100576.31;4972080;28;20559;-88
2023/06/28 10:37:12;;;;;;;1.00;0.83;;;;;;;21.42;nan;100563.91;4973181;28;20248;-89
2023/06/28 10:39:38;;;;;;;0.00;0.00;;;;;;;21.29;nan;100553.06;4987987;28;20653;-89
2023/06/28 10:42:05;;;;;;;0.00;0.00;;;;;;;21.41;nan;100553.94;4988312;28;20253;-88
2023/06/28 10:44:30;;;;;;;0.00;0.00;;;;;;;21.81;nan;100565.03;4971810;28;20219;-89
2023/06/28 10:47:09;;;;;;;0.00;0.00;;;;;;;21.81;nan;100545.56;4988092;28;20729;-88
2023/06/28 10:49:35;;;;;;;0.30;0.30;;;;;;;21.97;nan;100560.00;4971766;28;20197;-89
2023/06/28 10:52:00;;;;;;;0.00;0.00;;;;;;;21.96;nan;100554.81;4971657;28;20201;-88
2023/06/28 10:54:26;;;;;;;0.30;0.30;;;;;;;21.74;nan;100559.44;4971798;28;20296;-89
2023/06/28 10:56:51;;;;;;;0.30;0.30;;;;;;;21.63;nan;100551.00;4972166;28;20185;-89
2023/06/28 10:59:18;;;;;;;0.00;0.00;;;;;;;21.78;nan;100559.47;4971481;28;20656;-89
2023/06/28 11:01:49;;;;;;;0.10;0.10;;;;;;;21.92;nan;100548.44;4971852;28;20218;-89
2023/06/28 11:04:15;;;;;;;0.00;0.00;;;;;;;21.95;nan;100547.66;4971603;28;20296;-89
2023/06/28 11:06:41;;;;;;;0.37;0.37;;;;;;;22.09;nan;100558.13;4971733;28;20459;-88
2023/06/28 11:09:15;;;;;;;0.10;0.10;;;;;;;22.07;nan;100546.59;4971510;28;20189;-87
2023/06/28 11:11:56;;;;;;;0.97;0.87;;;;;;;22.03;nan;100548.53;4988219;28;20230;-88
2023/06/28 11:14:25;;;;;;;0.10;0.10;;;;;;;22.33;nan;100557.50;4967954;28;20217;-88
2023/06/28 11:16:52;;;;;;;3.73;1.47;;;;;;;22.63;nan;100562.06;4992571;28;20193;-88
2023/06/28 11:19:22;;;;;;;0.60;0.60;;;;;;;22.52;nan;100548.88;4975762;28;20638;-88
2023/06/28 11:21:55;;;;;;;0.63;0.63;;;;;;;22.25;nan;100553.88;4975904;28;20223;-88
2023/06/28 11:24:33;;;;;;;1.10;1.07;;;;;;;21.82;nan;100551.94;4983696;28;20215;-89
2023/06/28 11:26:59;;;;;;;0.20;0.20;;;;;;;21.92;nan;100567.91;4991919;28;20284;-89
2023/06/28 11:29:24;;;;;;;1.17;0.67;;;;;;;21.74;nan;100555.84;4991531;28;20392;-89
2023/06/28 11:31:55;;;;;;;0.80;0.80;;;;;;;21.53;nan;100556.44;4977268;28;20671;-88
2023/06/28 11:34:22;;;;;;;0.50;0.50;;;;;;;21.56;nan;100564.03;4968574;28;20238;-89
2023/06/28 11:36:49;;;;;;;0.10;0.10;;;;;;;21.85;nan;100567.88;4977113;28;20198;-88